CheckWX is a tool to help pilots better visualize weather data.  It is not intended as a substitute for an official pre-flight weather briefing.

00:37:43 UTC

FMEE METAR
Roland Garros Airport
St Denis, Reunion
Current

38 mins ago

FMEE 270000Z AUTO 18007KT CAVOK 24/21 Q1011
Observed
Mar-27 @ 00:00 UTC
Wind
  • 180° at 7 KTS
Visibility
10,000+ meters
Flight Rules
VFR
Cloud Levels
  • Clear skies
Temperature
24°C / 75°F
Dewpoint
21°C / 70°F
Humidity
83%
Altimeter
29.85" Hg
Pressure
1010.92 hPa
Previous

1 hour ago

FMEE 262330Z AUTO 00000KT CAVOK 24/22 Q1011
Observed
Mar-26 @ 23:30 UTC
Visibility
10,000+ meters
Flight Rules
VFR
Cloud Levels
  • Clear skies
Temperature
24°C / 75°F
Dewpoint
22°C / 72°F
Humidity
89%
Altimeter
29.85" Hg
Pressure
1010.92 hPa
Previous

2 hours ago

FMEE 262300Z AUTO 17003KT CAVOK 24/22 Q1011
Observed
Mar-26 @ 23:00 UTC
Wind
  • 170° at 3 KTS
Visibility
10,000+ meters
Flight Rules
VFR
Cloud Levels
  • Clear skies
Temperature
24°C / 75°F
Dewpoint
22°C / 72°F
Humidity
89%
Altimeter
29.85" Hg
Pressure
1010.92 hPa